createdAt,value
2022-09-04T00:01:22.405Z,1.60
2022-09-04T00:04:11.613Z,1.23
2022-09-04T00:06:43.668Z,1.27
2022-09-04T00:09:12.161Z,1.38
2022-09-04T00:11:58.146Z,1.38
2022-09-04T00:14:48.561Z,1.30
2022-09-04T00:17:15.710Z,1.38
2022-09-04T00:19:49.079Z,1.50
2022-09-04T00:22:28.498Z,1.23
2022-09-04T00:25:15.908Z,1.10
2022-09-04T00:27:45.511Z,1.33
2022-09-04T00:30:20.335Z,1.35
2022-09-04T00:32:48.419Z,1.30
2022-09-04T00:35:17.144Z,1.35
2022-09-04T00:38:10.807Z,1.20
2022-09-04T00:40:48.079Z,1.23
2022-09-04T00:43:30.185Z,1.20
2022-09-04T00:46:15.854Z,1.30
2022-09-04T00:48:49.125Z,1.33
2022-09-04T00:51:27.212Z,1.60
2022-09-04T00:54:00.179Z,1.23
2022-09-04T00:56:27.363Z,1.35
2022-09-04T00:59:06.478Z,1.30
2022-09-04T01:01:33.880Z,1.42
2022-09-04T01:04:24.759Z,1.20
2022-09-04T01:06:51.912Z,1.00
2022-09-04T01:09:37.557Z,1.20
2022-09-04T01:12:17.629Z,1.20
2022-09-04T01:14:53.271Z,1.10
2022-09-04T01:17:42.467Z,1.27
2022-09-04T01:20:21.133Z,1.20
2022-09-04T01:23:11.802Z,1.00
2022-09-04T01:26:01.235Z,1.17
2022-09-04T01:28:44.733Z,2.03
2022-09-04T01:31:21.132Z,0.98
2022-09-04T01:34:14.668Z,1.00
2022-09-04T01:36:41.877Z,1.05
2022-09-04T01:39:09.094Z,1.13
2022-09-04T01:41:38.514Z,1.30
2022-09-04T01:44:07.931Z,1.27
2022-09-04T01:46:35.096Z,1.20
2022-09-04T01:49:14.609Z,1.30
2022-09-04T01:51:41.734Z,1.40
2022-09-04T01:54:24.257Z,1.10
2022-09-04T01:56:51.395Z,1.30
2022-09-04T01:59:18.584Z,1.20
2022-09-04T02:02:02.699Z,1.10
2022-09-04T02:04:46.490Z,1.30
2022-09-04T02:07:25.954Z,1.15
2022-09-04T02:10:11.283Z,1.30
2022-09-04T02:12:58.740Z,1.00
2022-09-04T02:15:26.994Z,1.23
2022-09-04T02:18:14.473Z,1.30
2022-09-04T02:20:47.842Z,1.08
2022-09-04T02:23:35.829Z,1.25
2022-09-04T02:26:12.139Z,1.02
2022-09-04T02:28:42.417Z,1.38
2022-09-04T02:31:38.948Z,1.35
2022-09-04T02:34:09.806Z,1.40
2022-09-04T02:36:55.731Z,1.27
2022-09-04T02:39:22.909Z,1.20
2022-09-04T02:41:50.904Z,1.10
2022-09-04T02:44:41.687Z,1.15
2022-09-04T02:47:14.600Z,1.15
2022-09-04T02:49:51.024Z,1.23
2022-09-04T02:52:25.791Z,1.20
2022-09-04T02:54:58.307Z,1.38
2022-09-04T02:57:39.765Z,1.10
2022-09-04T03:00:21.567Z,1.13
2022-09-04T03:02:53.718Z,1.30
2022-09-04T03:05:26.203Z,1.20
2022-09-04T03:07:59.848Z,1.35
2022-09-04T03:10:40.814Z,1.50
2022-09-04T03:13:11.300Z,1.20
2022-09-04T03:15:46.017Z,1.30
2022-09-04T03:18:33.478Z,1.35
2022-09-04T03:21:14.644Z,1.20
2022-09-04T03:23:51.446Z,1.30
2022-09-04T03:26:21.662Z,0.93
2022-09-04T03:29:11.799Z,1.00
2022-09-04T03:31:42.182Z,1.65
2022-09-04T03:34:28.232Z,1.50
2022-09-04T03:36:58.441Z,1.27
2022-09-04T03:39:46.418Z,1.23
2022-09-04T03:42:25.784Z,1.13
2022-09-04T03:45:17.939Z,1.23
2022-09-04T03:48:00.526Z,1.20
2022-09-04T03:50:33.843Z,1.20
2022-09-04T03:53:09.264Z,1.35
2022-09-04T03:55:41.087Z,1.20
2022-09-04T03:58:27.040Z,1.48
2022-09-04T04:01:25.015Z,1.30
2022-09-04T04:04:07.856Z,1.23
2022-09-04T04:06:51.184Z,1.20
2022-09-04T04:09:31.553Z,1.27
2022-09-04T04:12:13.171Z,1.45
2022-09-04T04:14:43.396Z,1.65
2022-09-04T04:17:12.528Z,1.50
2022-09-04T04:19:43.151Z,1.52
2022-09-04T04:22:16.569Z,1.50
2022-09-04T04:24:50.667Z,1.60
2022-09-04T04:27:27.659Z,1.30
2022-09-04T04:29:58.072Z,1.15
2022-09-04T04:32:37.416Z,1.13
2022-09-04T04:35:27.775Z,1.38
2022-09-04T04:37:55.719Z,1.38
2022-09-04T04:40:28.670Z,1.25
2022-09-04T04:43:00.315Z,1.42
2022-09-04T04:45:52.339Z,1.45
2022-09-04T04:48:38.238Z,1.88
2022-09-04T04:51:24.460Z,1.50
2022-09-04T04:54:10.043Z,1.63
2022-09-04T04:56:45.800Z,1.30
2022-09-04T04:59:20.393Z,1.60
2022-09-04T05:02:07.884Z,1.63
2022-09-04T05:04:46.037Z,1.35
2022-09-04T05:07:30.284Z,1.70
2022-09-04T05:10:01.370Z,1.33
2022-09-04T05:12:28.503Z,1.35
2022-09-04T05:15:02.728Z,1.30
2022-09-04T05:17:44.725Z,1.43
2022-09-04T05:20:27.027Z,1.33
2022-09-04T05:23:13.156Z,1.60
2022-09-04T05:25:51.709Z,1.33
2022-09-04T05:28:40.507Z,1.30
2022-09-04T05:31:26.713Z,1.50
2022-09-04T05:33:55.147Z,1.38
2022-09-04T05:36:41.727Z,1.45
2022-09-04T05:39:20.334Z,1.48
2022-09-04T05:41:48.571Z,1.40
2022-09-04T05:44:31.139Z,1.20
2022-09-04T05:47:10.331Z,1.70
2022-09-04T05:49:56.030Z,1.98
2022-09-04T05:52:33.838Z,1.65
2022-09-04T05:55:01.004Z,1.60
2022-09-04T05:57:47.019Z,1.55
2022-09-04T06:00:14.643Z,1.30
2022-09-04T06:03:00.536Z,1.42
2022-09-04T06:05:46.369Z,1.40
2022-09-04T06:08:33.168Z,1.40
2022-09-04T06:11:06.793Z,1.52
2022-09-04T06:13:46.279Z,1.73
2022-09-04T06:16:32.283Z,1.45
2022-09-04T06:19:02.454Z,1.27
2022-09-04T06:21:48.335Z,1.80
2022-09-04T06:24:15.506Z,1.50
2022-09-04T06:27:09.748Z,1.48
2022-09-04T06:29:39.898Z,1.45
2022-09-04T06:32:10.147Z,1.70
2022-09-04T06:34:40.297Z,1.50
2022-09-04T06:37:17.326Z,1.65
2022-09-04T06:39:44.521Z,1.70
2022-09-04T06:42:32.367Z,1.50
2022-09-04T06:45:05.275Z,1.45
2022-09-04T06:47:35.503Z,1.38
2022-09-04T06:50:08.006Z,1.50
2022-09-04T06:52:47.770Z,1.40
2022-09-04T06:55:26.570Z,1.75
2022-09-04T06:57:59.961Z,1.40
2022-09-04T07:00:28.990Z,1.35
2022-09-04T07:03:04.727Z,1.40
2022-09-04T07:05:31.879Z,1.42
2022-09-04T07:08:08.002Z,1.40
2022-09-04T07:10:35.200Z,1.08
2022-09-04T07:13:23.550Z,1.27
2022-09-04T07:15:57.193Z,1.20
2022-09-04T07:19:03.466Z,1.27
2022-09-04T07:21:34.836Z,1.20
2022-09-04T07:24:38.723Z,0.88
2022-09-04T07:27:25.189Z,1.40
2022-09-04T07:29:52.323Z,1.10
2022-09-04T07:32:22.932Z,1.40
2022-09-04T07:34:54.919Z,1.08
2022-09-04T07:37:44.258Z,1.20
2022-09-04T07:40:12.686Z,1.10
2022-09-04T07:42:49.102Z,1.00
2022-09-04T07:45:30.037Z,1.10
2022-09-04T07:48:08.530Z,1.15
2022-09-04T07:50:58.111Z,1.05
2022-09-04T07:53:48.930Z,1.30
2022-09-04T07:56:35.358Z,1.42
2022-09-04T07:59:02.793Z,1.10
2022-09-04T08:01:35.071Z,1.30
2022-09-04T08:04:17.636Z,1.17
2022-09-04T08:06:49.986Z,1.30
2022-09-04T08:09:33.921Z,1.33
2022-09-04T08:14:37.662Z,1.48
2022-09-04T08:17:25.269Z,1.40
2022-09-04T08:20:02.511Z,1.48
2022-09-04T08:22:43.302Z,1.38
2022-09-04T08:25:30.243Z,1.10
2022-09-04T08:28:20.922Z,1.10
2022-09-04T08:31:01.849Z,1.60
2022-09-04T08:33:35.624Z,1.30
2022-09-04T08:36:04.213Z,1.30
2022-09-04T08:38:34.372Z,1.50
2022-09-04T08:41:20.039Z,1.70
2022-09-04T08:44:06.044Z,1.67
2022-09-04T08:46:36.278Z,1.30
2022-09-04T08:49:10.453Z,1.15
2022-09-04T08:52:07.115Z,1.60
2022-09-04T08:54:34.257Z,1.60
2022-09-04T08:57:20.137Z,1.25
2022-09-04T09:00:07.598Z,1.40
2022-09-04T09:02:34.762Z,1.25
2022-09-04T09:05:11.118Z,1.50
2022-09-04T09:07:44.186Z,1.30
2022-09-04T09:10:30.180Z,1.40
2022-09-04T09:13:20.142Z,1.33
2022-09-04T09:15:58.385Z,1.20
2022-09-04T09:18:42.025Z,1.45
2022-09-04T09:23:45.420Z,1.45
2022-09-04T09:26:18.598Z,1.30
2022-09-04T09:28:51.529Z,1.20
2022-09-04T09:31:38.326Z,1.25
2022-09-04T09:34:15.006Z,1.10
2022-09-04T09:37:02.664Z,1.30
2022-09-04T09:39:38.995Z,4.00
2022-09-04T09:42:44.775Z,1.40
2022-09-04T09:45:17.717Z,1.30
2022-09-04T09:47:51.392Z,1.60
2022-09-04T09:50:20.639Z,1.15
2022-09-04T09:53:06.614Z,1.08
2022-09-04T09:55:42.810Z,1.10
2022-09-04T09:58:28.775Z,1.42
2022-09-04T10:00:59.026Z,1.10
2022-09-04T10:03:29.500Z,1.27
2022-09-04T10:06:05.839Z,1.10
2022-09-04T10:08:51.699Z,1.08
2022-09-04T10:11:42.415Z,1.00
2022-09-04T10:14:28.906Z,1.10
2022-09-04T10:17:22.867Z,1.10
2022-09-04T10:20:00.253Z,1.20
2022-09-04T10:22:33.386Z,1.20
2022-09-04T10:25:20.486Z,1.20
2022-09-04T10:27:53.926Z,1.00
2022-09-04T10:30:22.339Z,1.23
2022-09-04T10:33:07.990Z,1.30
2022-09-04T10:35:45.488Z,1.35
2022-09-04T10:38:19.414Z,1.40
2022-09-04T10:40:50.750Z,1.70
2022-09-04T10:43:35.092Z,1.55
2022-09-04T10:46:22.908Z,1.70
2022-09-04T10:49:03.032Z,1.45
2022-09-04T10:51:46.371Z,1.60
2022-09-04T10:54:32.071Z,1.50
2022-09-04T10:57:05.583Z,1.45
2022-09-04T10:59:41.455Z,1.38
2022-09-04T11:02:11.773Z,1.48
2022-09-04T11:04:59.988Z,1.30
2022-09-04T11:07:36.231Z,1.52
2022-09-04T11:10:04.352Z,1.40
2022-09-04T11:12:48.109Z,1.38
2022-09-04T11:15:24.335Z,1.20
2022-09-04T11:18:02.439Z,1.48
2022-09-04T11:20:32.772Z,1.60
2022-09-04T11:23:18.491Z,1.40
2022-09-04T11:25:49.159Z,1.42
2022-09-04T11:28:36.230Z,1.50
2022-09-04T11:31:12.737Z,1.60
2022-09-04T11:33:58.278Z,1.25
2022-09-04T11:36:45.533Z,1.30
2022-09-04T11:39:18.999Z,1.50
2022-09-04T11:41:56.518Z,1.67
2022-09-04T11:44:29.054Z,1.48
2022-09-04T11:47:04.042Z,1.65
2022-09-04T11:49:38.925Z,1.55
2022-09-04T11:52:15.359Z,1.55
2022-09-04T11:55:01.554Z,1.27
2022-09-04T11:57:57.937Z,1.55
2022-09-04T12:00:25.084Z,1.55
2022-09-04T12:02:58.430Z,1.60
2022-09-04T12:05:45.701Z,1.50
2022-09-04T12:08:22.037Z,1.45
2022-09-04T12:10:49.674Z,1.30
2022-09-04T12:13:37.807Z,1.42
2022-09-04T12:16:08.095Z,1.73
2022-09-04T12:18:35.300Z,1.52
2022-09-04T12:21:02.410Z,1.33
2022-09-04T12:23:32.768Z,1.33
2022-09-04T12:26:01.350Z,1.60
2022-09-04T12:28:34.771Z,1.20
2022-09-04T12:31:23.876Z,1.10
2022-09-04T12:34:09.931Z,1.60
2022-09-04T12:36:43.218Z,1.60
2022-09-04T12:39:20.780Z,1.33
2022-09-04T12:41:51.028Z,1.40
2022-09-04T12:44:37.321Z,1.67
2022-09-04T12:47:22.852Z,1.50
2022-09-04T12:50:00.067Z,1.30
2022-09-04T12:52:36.303Z,1.48
2022-09-04T12:55:19.295Z,1.50
2022-09-04T12:58:02.806Z,1.60
2022-09-04T13:00:31.689Z,1.80
2022-09-04T13:03:31.102Z,1.42
2022-09-04T13:06:07.422Z,1.60
2022-09-04T13:08:43.895Z,1.63
2022-09-04T13:11:29.866Z,1.50
2022-09-04T13:14:07.196Z,1.20
2022-09-04T13:16:55.270Z,1.52
2022-09-04T13:19:29.807Z,1.45
2022-09-04T13:21:57.066Z,1.40
2022-09-04T13:24:35.781Z,1.45
2022-09-04T13:27:26.577Z,1.45
2022-09-04T13:30:03.265Z,1.58
2022-09-04T13:32:46.870Z,1.77
2022-09-04T13:35:36.629Z,1.70
2022-09-04T13:38:03.864Z,1.17
2022-09-04T13:40:46.243Z,1.17
2022-09-04T13:43:19.241Z,1.40
2022-09-04T13:45:48.663Z,1.48
2022-09-04T13:48:37.368Z,1.50
2022-09-04T13:51:13.917Z,1.30
2022-09-04T13:53:50.280Z,1.30
2022-09-04T13:56:19.577Z,1.65
2022-09-04T13:58:51.343Z,1.55
2022-09-04T14:01:25.014Z,1.60
2022-09-04T14:03:54.150Z,1.55
2022-09-04T14:06:23.877Z,1.45
2022-09-04T14:09:04.904Z,1.48
2022-09-04T14:11:37.280Z,1.20
2022-09-04T14:14:23.539Z,1.50
2022-09-04T14:16:52.733Z,1.13
2022-09-04T14:19:19.868Z,1.50
2022-09-04T14:21:47.349Z,1.23
2022-09-04T14:24:23.749Z,1.30
2022-09-04T14:27:11.437Z,1.60
2022-09-04T14:29:55.461Z,1.20
2022-09-04T14:32:32.154Z,1.55
2022-09-04T14:35:18.186Z,1.40
2022-09-04T14:37:48.663Z,1.73
2022-09-04T14:40:17.898Z,1.20
2022-09-04T14:42:47.322Z,1.00
2022-09-04T14:45:40.998Z,1.10
2022-09-04T14:48:12.183Z,1.40
2022-09-04T14:50:48.523Z,1.50
2022-09-04T14:53:21.744Z,1.40
2022-09-04T14:56:07.607Z,2.25
2022-09-04T14:58:36.736Z,1.42
2022-09-04T15:01:07.206Z,1.52
2022-09-04T15:03:45.605Z,1.20
2022-09-04T15:06:19.368Z,1.38
2022-09-04T15:08:50.586Z,1.60
2022-09-04T15:11:32.552Z,1.40
2022-09-04T15:14:04.835Z,1.60
2022-09-04T15:16:48.556Z,1.35
2022-09-04T15:19:28.350Z,1.33
2022-09-04T15:22:18.626Z,1.33
2022-09-04T15:24:45.769Z,1.20
2022-09-04T15:27:19.978Z,1.30
2022-09-04T15:29:47.527Z,1.73
2022-09-04T15:32:21.048Z,1.80
2022-09-04T15:34:48.829Z,1.70
2022-09-04T15:37:15.983Z,1.77
2022-09-04T15:39:46.253Z,1.63
2022-09-04T15:42:13.990Z,1.30
2022-09-04T15:44:41.106Z,1.50
2022-09-04T15:47:08.239Z,1.60
2022-09-04T15:49:41.384Z,1.48
2022-09-04T15:52:12.613Z,1.50
2022-09-04T15:54:43.190Z,1.55
2022-09-04T15:57:21.897Z,1.42
2022-09-04T16:00:24.580Z,1.65
2022-09-04T16:02:54.698Z,1.20
2022-09-04T16:05:24.000Z,1.17
2022-09-04T16:07:54.533Z,1.40
2022-09-04T16:10:26.799Z,1.42
2022-09-04T16:13:01.945Z,1.50
2022-09-04T16:15:32.049Z,1.30
2022-09-04T16:18:02.696Z,1.30
2022-09-04T16:20:36.981Z,1.70
2022-09-04T16:23:09.415Z,1.30
2022-09-04T16:25:58.153Z,2.05
2022-09-04T16:28:25.559Z,1.55
2022-09-04T16:31:02.941Z,1.40
2022-09-04T16:33:30.110Z,1.35
2022-09-04T16:36:04.131Z,1.50
2022-09-04T16:38:47.502Z,1.33
2022-09-04T16:41:17.884Z,1.52
2022-09-04T16:44:07.989Z,1.67
2022-09-04T16:46:37.655Z,2.55
2022-09-04T16:49:04.810Z,2.30
2022-09-04T16:51:42.088Z,1.50
2022-09-04T16:54:12.376Z,1.40
2022-09-04T16:56:42.812Z,1.30
2022-09-04T16:59:29.306Z,1.48
2022-09-04T17:02:04.076Z,1.40
2022-09-04T17:07:08.666Z,1.60
2022-09-04T17:09:55.797Z,1.30
2022-09-04T17:12:23.363Z,1.42
2022-09-04T17:14:55.234Z,1.30
2022-09-04T17:17:32.011Z,1.33
2022-09-04T17:20:10.079Z,1.25
2022-09-04T17:29:00.159Z,1.13
2022-09-04T17:29:08.246Z,1.50
2022-09-04T17:29:10.934Z,1.60
2022-09-04T17:31:23.211Z,1.70
2022-09-04T17:37:37.014Z,1.77
2022-09-04T17:40:37.720Z,1.50
2022-09-04T17:40:52.074Z,1.52
2022-09-04T17:43:12.957Z,1.33
2022-09-04T17:45:29.935Z,1.38
2022-09-04T17:48:26.248Z,1.50
2022-09-04T17:51:04.438Z,1.60
2022-09-04T17:53:34.739Z,1.98
2022-09-04T17:56:31.538Z,1.70
2022-09-04T17:59:21.977Z,1.80
2022-09-04T18:01:59.102Z,1.52
2022-09-04T18:04:32.603Z,1.67
2022-09-04T18:07:33.573Z,1.80
2022-09-04T18:10:18.181Z,1.77
2022-09-04T18:13:00.668Z,1.60
2022-09-04T18:15:34.668Z,1.80
2022-09-04T18:18:17.660Z,1.88
2022-09-04T18:21:00.018Z,1.70
2022-09-04T18:23:51.109Z,2.40
2022-09-04T18:26:22.329Z,2.80
2022-09-04T18:28:50.865Z,2.50
2022-09-04T18:37:07.402Z,2.72
2022-09-04T18:37:16.433Z,2.60
2022-09-04T18:37:18.388Z,2.90
2022-09-04T18:39:50.751Z,2.97
2022-09-04T18:49:25.141Z,2.30
2022-09-04T18:50:38.906Z,3.05
2022-09-04T18:50:40.371Z,2.80
2022-09-04T18:51:19.311Z,2.90
2022-09-04T18:53:44.959Z,2.92
2022-09-04T18:56:20.768Z,3.20
2022-09-04T18:58:54.094Z,2.58
2022-09-04T19:01:27.112Z,2.40
2022-09-04T19:04:26.237Z,3.03
2022-09-04T19:07:07.762Z,2.70
2022-09-04T19:09:58.641Z,2.90
2022-09-04T19:12:36.954Z,2.80
2022-09-04T19:15:35.961Z,2.97
2022-09-04T19:18:13.163Z,3.20
2022-09-04T19:20:49.227Z,2.88
2022-09-04T19:23:25.100Z,2.80
2022-09-04T19:25:54.893Z,3.65
2022-09-04T19:28:28.117Z,3.03
2022-09-04T19:30:55.227Z,3.00
2022-09-04T19:33:31.645Z,2.92
2022-09-04T19:36:03.590Z,3.17
2022-09-04T19:45:56.905Z,3.65
2022-09-04T19:46:06.316Z,3.15
2022-09-04T19:46:12.706Z,3.70
2022-09-04T19:47:28.574Z,3.50
2022-09-04T19:53:19.282Z,3.47
2022-09-04T19:53:35.189Z,3.78
2022-09-04T19:55:45.968Z,3.67
2022-09-04T19:58:19.152Z,3.90
2022-09-04T20:00:55.222Z,3.55
2022-09-04T20:03:29.570Z,4.38
2022-09-04T20:06:20.506Z,3.95
2022-09-04T20:08:52.474Z,4.55
2022-09-04T20:11:35.206Z,3.75
2022-09-04T20:14:13.908Z,3.63
2022-09-04T20:17:02.358Z,4.07
2022-09-04T20:19:42.323Z,3.92
2022-09-04T20:22:29.309Z,4.00
2022-09-04T20:25:19.619Z,3.78
2022-09-04T20:28:07.023Z,4.53
2022-09-04T20:30:35.163Z,3.55
2022-09-04T20:33:20.344Z,3.70
2022-09-04T20:35:52.615Z,4.20
2022-09-04T20:38:26.113Z,3.45
2022-09-04T20:41:00.656Z,3.88
2022-09-04T20:43:51.542Z,3.58
2022-09-04T20:47:41.001Z,3.72
2022-09-04T20:52:50.301Z,5.00
2022-09-04T20:52:52.411Z,4.35
2022-09-04T20:55:24.180Z,4.80
2022-09-04T21:00:54.779Z,4.50
2022-09-04T21:03:21.364Z,3.60
2022-09-04T21:03:50.239Z,3.88
2022-09-04T21:06:22.672Z,4.45
2022-09-04T21:08:49.868Z,3.80
2022-09-04T21:11:40.934Z,3.92
2022-09-04T21:14:13.779Z,4.43
2022-09-04T21:16:59.788Z,3.78
2022-09-04T21:19:32.942Z,4.97
2022-09-04T21:22:32.324Z,4.00
2022-09-04T21:25:09.473Z,3.55
2022-09-04T21:27:59.942Z,3.80
2022-09-04T21:30:42.451Z,3.70
2022-09-04T21:33:28.257Z,3.78
2022-09-04T21:36:00.361Z,3.85
2022-09-04T21:39:04.977Z,4.20
2022-09-04T21:41:35.133Z,4.00
2022-09-04T21:44:02.506Z,3.90
2022-09-04T21:46:32.506Z,3.70
2022-09-04T21:49:07.851Z,4.28
2022-09-04T21:54:37.492Z,4.22
2022-09-04T22:02:25.275Z,3.45
2022-09-04T22:02:40.789Z,4.07
2022-09-04T22:03:03.621Z,4.20
2022-09-04T22:05:43.361Z,4.13
2022-09-04T22:13:06.281Z,3.95
2022-09-04T22:13:39.702Z,4.05
2022-09-04T22:14:09.523Z,4.10
2022-09-04T22:16:42.168Z,4.15
2022-09-04T22:19:28.455Z,4.05
2022-09-04T22:22:03.442Z,4.18
2022-09-04T22:24:46.423Z,4.20
2022-09-04T22:27:16.555Z,4.15
2022-09-04T22:29:49.625Z,4.45
2022-09-04T22:32:25.702Z,3.63
2022-09-04T22:35:17.214Z,4.40
2022-09-04T22:37:44.329Z,3.97
2022-09-04T22:40:30.010Z,4.00
2022-09-04T22:43:06.346Z,4.20
2022-09-04T22:45:36.307Z,4.18
2022-09-04T22:48:18.638Z,4.05
2022-09-04T22:51:04.142Z,3.88
2022-09-04T22:53:52.049Z,3.70
2022-09-04T22:56:31.745Z,3.63
2022-09-04T22:59:26.954Z,3.33
2022-09-04T23:04:40.591Z,3.65
2022-09-04T23:13:48.028Z,3.67
2022-09-04T23:13:54.155Z,3.92
2022-09-04T23:13:57.993Z,3.72
2022-09-04T23:16:01.682Z,3.40
2022-09-04T23:21:29.768Z,3.60
2022-09-04T23:26:45.334Z,3.65
2022-09-04T23:26:46.043Z,3.30
2022-09-04T23:28:12.327Z,3.13
2022-09-04T23:30:53.540Z,3.60
2022-09-04T23:33:39.275Z,3.10
2022-09-04T23:36:12.480Z,3.55
2022-09-04T23:38:55.801Z,2.97
2022-09-04T23:41:47.462Z,3.05
2022-09-04T23:44:46.990Z,3.38
2022-09-04T23:47:47.234Z,3.13
2022-09-04T23:50:16.294Z,3.05
2022-09-04T23:52:55.409Z,3.40
2022-09-04T23:55:45.040Z,3.47
2022-09-04T23:58:34.920Z,2.90
